Time;durP1;ratioP1;P1;durP2;ratioP2;P2;SDS_P1;SDS_P2;PMS_P1;PMS_P2;Temp;Humidity;BMP_temperature;BMP_pressure;BME280_temperature;BME280_humidity;BME280_pressure;Samples;Min_cycle;Max_cycle;Signal;HPM_P1;HPM_P2
2022/07/14 02:48:15;;;;;;;3.42;0.47;;;21.70;63.30;;;;;;4994491;23;86910;-83
2022/07/14 02:50:41;;;;;;;2.75;0.57;;;21.80;63.00;;;;;;4904772;28;86899;-83
2022/07/14 02:53:07;;;;;;;3.25;0.70;;;21.80;62.20;;;;;;4903360;28;87405;-83
2022/07/14 02:55:36;;;;;;;2.83;0.40;;;21.70;62.10;;;;;;4903109;28;86952;-82
2022/07/14 02:58:05;;;;;;;3.20;0.80;;;21.80;61.50;;;;;;4902480;28;86714;-83
2022/07/14 03:00:31;;;;;;;2.00;0.43;;;21.70;62.10;;;;;;4899229;28;88128;-83
2022/07/14 03:02:58;;;;;;;4.45;0.60;;;21.60;63.10;;;;;;4904071;28;88561;-83
2022/07/14 03:05:24;;;;;;;3.22;0.43;;;21.50;63.90;;;;;;4906258;28;87089;-84
2022/07/14 03:07:50;;;;;;;3.28;0.35;;;21.40;63.90;;;;;;4905467;28;87438;-84
2022/07/14 03:10:16;;;;;;;1.60;0.50;;;21.50;63.00;;;;;;4903184;28;86331;-84
2022/07/14 03:12:42;;;;;;;1.67;0.50;;;21.60;62.60;;;;;;4905317;28;88060;-82
2022/07/14 03:15:08;;;;;;;1.67;0.43;;;21.60;62.40;;;;;;4903982;28;87803;-82
2022/07/14 03:17:34;;;;;;;1.92;0.88;;;21.70;62.30;;;;;;4905386;28;87084;-83
2022/07/14 03:20:02;;;;;;;1.65;0.40;;;21.80;62.60;;;;;;4905610;28;86239;-84
2022/07/14 03:22:28;;;;;;;3.15;0.43;;;22.00;60.90;;;;;;4902622;28;88509;-82
2022/07/14 03:24:54;;;;;;;3.40;0.57;;;22.00;60.20;;;;;;4903354;28;87642;-82
2022/07/14 03:27:20;;;;;;;2.47;0.52;;;22.00;59.90;;;;;;4906154;28;88006;-82
2022/07/14 03:29:45;;;;;;;2.17;0.75;;;21.90;59.80;;;;;;4904836;28;86370;-82
2022/07/14 03:32:12;;;;;;;1.63;0.55;;;22.00;58.60;;;;;;4904941;28;87539;-82
2022/07/14 03:34:37;;;;;;;4.03;0.63;;;22.20;57.50;;;;;;4893020;28;87252;-82
2022/07/14 03:37:03;;;;;;;1.85;0.45;;;22.30;57.80;;;;;;4901796;28;86747;-82
2022/07/14 03:39:29;;;;;;;3.30;0.40;;;22.20;58.50;;;;;;4906151;28;87463;-82
2022/07/14 03:41:54;;;;;;;3.28;0.55;;;22.10;58.30;;;;;;4888239;28;86575;-83
2022/07/14 03:44:20;;;;;;;4.15;0.63;;;22.10;59.10;;;;;;4900558;28;87152;-82
2022/07/14 03:46:46;;;;;;;1.92;0.50;;;22.10;58.80;;;;;;4900566;28;87460;-80
2022/07/14 03:49:12;;;;;;;2.38;0.43;;;22.10;58.50;;;;;;4877572;28;87114;-80
2022/07/14 03:51:42;;;;;;;3.35;0.20;;;22.10;58.00;;;;;;4879513;28;88130;-80
2022/07/14 03:54:08;;;;;;;5.00;0.52;;;22.20;57.80;;;;;;4884015;28;87249;-82
2022/07/14 03:56:33;;;;;;;3.50;0.50;;;22.20;58.60;;;;;;4886760;28;87357;-82
2022/07/14 03:58:59;;;;;;;3.08;0.50;;;22.20;58.60;;;;;;4885259;28;86932;-82
2022/07/14 04:01:25;;;;;;;2.55;0.60;;;22.10;58.60;;;;;;4886419;28;86995;-81
2022/07/14 04:03:51;;;;;;;3.00;0.60;;;22.10;58.30;;;;;;4890266;28;87205;-82
2022/07/14 04:06:16;;;;;;;3.15;0.50;;;22.20;58.90;;;;;;4887146;28;87216;-81
2022/07/14 04:08:44;;;;;;;2.55;0.47;;;22.30;58.90;;;;;;4888851;28;86629;-83
2022/07/14 04:11:10;;;;;;;3.08;0.98;;;22.20;59.00;;;;;;4888292;28;86772;-82
2022/07/14 04:13:36;;;;;;;6.22;1.00;;;22.20;58.50;;;;;;4886271;28;87498;-82
2022/07/14 04:16:02;;;;;;;2.70;0.50;;;22.20;58.60;;;;;;4887573;28;88201;-81
2022/07/14 04:18:28;;;;;;;4.30;0.60;;;22.20;59.30;;;;;;4887564;28;87520;-81
2022/07/14 04:20:54;;;;;;;2.95;0.50;;;22.10;60.30;;;;;;4887654;28;87231;-82
2022/07/14 04:23:20;;;;;;;6.75;0.77;;;22.10;60.40;;;;;;4882745;28;87264;-80
2022/07/14 04:25:47;;;;;;;5.47;0.63;;;22.10;60.70;;;;;;4882481;28;87107;-80
2022/07/14 04:28:14;;;;;;;15.07;0.80;;;22.20;60.80;;;;;;4882768;28;87008;-80
2022/07/14 04:30:39;;;;;;;7.68;0.75;;;22.20;61.20;;;;;;4881859;28;87433;-80
2022/07/14 04:33:05;;;;;;;3.20;0.45;;;22.20;61.20;;;;;;4882523;28;86956;-80
2022/07/14 04:35:31;;;;;;;1.48;0.43;;;22.30;60.60;;;;;;4883207;28;87160;-81
2022/07/14 04:37:57;;;;;;;2.83;0.70;;;22.40;60.40;;;;;;4881703;28;87076;-80
2022/07/14 04:40:22;;;;;;;3.25;0.55;;;22.70;61.00;;;;;;4882607;28;88207;-80
2022/07/14 04:42:48;;;;;;;5.38;0.80;;;23.00;61.40;;;;;;4886519;28;87812;-79
2022/07/14 04:45:14;;;;;;;4.25;0.45;;;23.20;60.70;;;;;;4892211;28;86959;-79
2022/07/14 04:47:39;;;;;;;2.72;0.55;;;24.10;58.30;;;;;;4899851;28;87172;-80
2022/07/14 04:53:00;;;;;;;2.40;0.52;;;23.80;57.60;;;;;;4797529;28;87235;-80
2022/07/14 04:55:26;;;;;;;3.10;0.60;;;23.90;57.90;;;;;;4882452;28;87215;-82
2022/07/14 04:57:51;;;;;;;3.85;0.63;;;23.70;57.50;;;;;;4883535;28;86178;-80
2022/07/14 05:00:17;;;;;;;5.35;0.73;;;23.50;58.40;;;;;;4890907;28;87052;-82
2022/07/14 05:02:43;;;;;;;7.15;0.75;;;23.30;58.50;;;;;;4881796;28;87131;-80
2022/07/14 05:05:09;;;;;;;5.28;0.93;;;23.30;58.50;;;;;;4876339;28;87947;-80
2022/07/14 05:07:35;;;;;;;3.30;0.90;;;23.20;58.60;;;;;;4884466;28;87017;-80
2022/07/14 05:10:02;;;;;;;11.30;1.05;;;23.10;59.10;;;;;;4889501;28;87017;-80
2022/07/14 05:12:29;;;;;;;4.00;1.02;;;23.20;59.40;;;;;;4887012;28;86960;-83
2022/07/14 05:14:54;;;;;;;76.68;5.80;;;23.30;59.20;;;;;;4886283;28;86941;-80
2022/07/14 05:17:20;;;;;;;6.85;0.90;;;23.30;58.50;;;;;;4887182;28;86947;-81
2022/07/14 05:19:46;;;;;;;2.67;0.50;;;23.50;57.50;;;;;;4889717;28;88060;-81
2022/07/14 05:22:12;;;;;;;6.47;0.63;;;23.70;57.10;;;;;;4889831;28;87995;-81
2022/07/14 05:24:38;;;;;;;2.92;1.00;;;23.90;56.90;;;;;;4890251;28;86977;-83
2022/07/14 05:27:04;;;;;;;4.18;0.68;;;23.90;58.20;;;;;;4890032;28;86971;-81
2022/07/14 05:29:30;;;;;;;3.70;0.77;;;23.90;58.70;;;;;;4887380;28;88686;-82
2022/07/14 05:31:58;;;;;;;1.55;0.43;;;24.00;59.30;;;;;;4888726;28;87123;-83
2022/07/14 05:34:23;;;;;;;2.67;0.60;;;24.10;59.80;;;;;;4891263;28;87146;-82
2022/07/14 05:36:49;;;;;;;4.68;0.80;;;24.30;60.10;;;;;;4890540;28;86969;-81
2022/07/14 05:39:15;;;;;;;2.97;0.60;;;24.20;61.50;;;;;;4890213;28;87571;-82
2022/07/14 05:41:41;;;;;;;3.92;0.52;;;23.90;61.50;;;;;;4890808;28;87108;-82
2022/07/14 05:44:07;;;;;;;4.00;0.77;;;23.80;61.80;;;;;;4890999;28;87517;-82
2022/07/14 05:46:32;;;;;;;6.53;0.80;;;23.70;63.40;;;;;;4889998;28;86276;-82
2022/07/14 05:48:58;;;;;;;12.50;1.58;;;23.70;62.70;;;;;;4889470;28;88240;-82
2022/07/14 05:51:24;;;;;;;3.17;0.50;;;23.90;62.80;;;;;;4882066;28;87442;-81
2022/07/14 05:53:50;;;;;;;3.00;0.68;;;24.30;61.10;;;;;;4877384;28;88187;-82
2022/07/14 05:56:17;;;;;;;2.00;0.73;;;25.90;60.40;;;;;;4889419;28;87072;-82
2022/07/14 05:58:44;;;;;;;5.47;0.70;;;27.40;55.50;;;;;;4888455;28;87651;-83
2022/07/14 06:01:10;;;;;;;4.40;0.70;;;27.60;53.60;;;;;;4889142;28;86929;-82
2022/07/14 06:03:36;;;;;;;11.70;1.20;;;27.90;52.80;;;;;;4888127;28;86970;-82
2022/07/14 06:06:03;;;;;;;3.53;0.88;;;27.00;56.20;;;;;;4887962;28;88386;-82
2022/07/14 06:08:29;;;;;;;3.95;1.05;;;28.10;56.80;;;;;;4889964;28;87976;-82
2022/07/14 06:10:55;;;;;;;4.55;1.00;;;29.40;52.20;;;;;;4899732;28;87316;-82
2022/07/14 06:13:26;;;;;;;5.10;0.73;;;29.40;51.90;;;;;;4890020;28;86997;-81
2022/07/14 06:15:54;;;;;;;2.95;0.77;;;29.20;50.50;;;;;;4885376;28;86957;-80
2022/07/14 06:18:20;;;;;;;10.25;1.08;;;28.20;52.90;;;;;;4886316;28;88261;-80
2022/07/14 06:20:47;;;;;;;7.40;1.20;;;26.80;55.50;;;;;;4886687;28;88809;-80
2022/07/14 06:23:13;;;;;;;6.72;1.00;;;26.20;54.50;;;;;;4887031;28;86991;-80
2022/07/14 06:25:39;;;;;;;5.70;0.82;;;26.40;53.00;;;;;;4887566;28;87029;-82
2022/07/14 06:28:06;;;;;;;5.22;1.15;;;27.20;51.20;;;;;;4887101;28;88024;-82
2022/07/14 06:30:32;;;;;;;13.88;1.23;;;27.40;50.00;;;;;;4887595;28;87144;-80
2022/07/14 06:32:58;;;;;;;13.73;0.80;;;27.70;49.60;;;;;;4890115;28;87282;-82
2022/07/14 06:35:24;;;;;;;11.82;1.30;;;27.60;49.40;;;;;;4889853;28;86274;-82
2022/07/14 06:37:52;;;;;;;7.53;0.77;;;27.20;49.60;;;;;;4889557;28;87048;-81
2022/07/14 06:40:18;;;;;;;5.60;0.93;;;26.60;50.00;;;;;;4888307;28;87247;-82
2022/07/14 06:42:44;;;;;;;18.77;1.33;;;26.50;51.40;;;;;;4873896;28;87883;-82
2022/07/14 06:45:11;;;;;;;7.15;0.90;;;26.90;50.10;;;;;;4886939;28;87430;-82
2022/07/14 06:47:36;;;;;;;5.30;0.88;;;27.30;49.70;;;;;;4888911;28;87036;-81
2022/07/14 06:50:03;;;;;;;1.70;0.77;;;27.70;49.50;;;;;;4890404;28;87177;-81
2022/07/14 06:52:29;;;;;;;3.28;0.70;;;28.20;49.30;;;;;;4890702;28;87103;-81
2022/07/14 06:54:58;;;;;;;2.67;0.80;;;28.90;49.30;;;;;;4889024;28;87008;-81
2022/07/14 06:57:23;;;;;;;3.35;0.77;;;29.30;49.70;;;;;;4889710;28;86908;-80
2022/07/14 06:59:49;;;;;;;2.80;0.73;;;29.30;50.10;;;;;;4887742;28;86589;-82
2022/07/14 07:02:15;;;;;;;2.45;0.88;;;30.50;48.60;;;;;;4890009;28;87381;-83
2022/07/14 07:04:41;;;;;;;4.43;0.82;;;31.50;49.60;;;;;;4885077;28;86729;-80
2022/07/14 07:07:06;;;;;;;4.47;1.40;;;31.80;49.70;;;;;;4886393;28;89082;-83
2022/07/14 07:09:32;;;;;;;3.72;1.67;;;32.30;50.00;;;;;;4884698;28;87213;-83
2022/07/14 07:11:58;;;;;;;2.63;1.23;;;33.50;49.40;;;;;;4899142;28;87097;-84
2022/07/14 07:14:24;;;;;;;3.85;1.10;;;36.10;47.20;;;;;;4889639;28;87302;-81
2022/07/14 07:16:50;;;;;;;7.03;1.30;;;39.10;44.50;;;;;;4890050;28;87202;-82
2022/07/14 07:19:16;;;;;;;3.53;2.00;;;41.60;40.70;;;;;;4896873;28;88533;-85
2022/07/14 07:21:42;;;;;;;4.03;1.63;;;42.10;38.10;;;;;;4894908;28;87702;-81
2022/07/14 07:24:09;;;;;;;5.82;1.70;;;40.40;37.90;;;;;;4896689;28;87195;-83
2022/07/14 07:26:37;;;;;;;6.97;1.70;;;39.10;40.30;;;;;;4883683;28;87688;-82
2022/07/14 07:29:04;;;;;;;4.70;1.60;;;37.10;42.70;;;;;;4895333;28;87408;-84
2022/07/14 07:31:31;;;;;;;6.10;1.52;;;37.80;43.30;;;;;;4892547;28;87997;-83
2022/07/14 07:33:57;;;;;;;4.55;2.15;;;40.10;39.70;;;;;;4901348;28;86944;-83
2022/07/14 07:36:23;;;;;;;3.20;1.75;;;41.60;38.90;;;;;;4895609;28;87670;-83
2022/07/14 07:38:49;;;;;;;5.68;2.20;;;43.70;35.80;;;;;;4891055;28;88238;-82
2022/07/14 07:41:14;;;;;;;4.00;2.10;;;44.80;34.50;;;;;;4892885;28;87076;-80
2022/07/14 07:43:40;;;;;;;4.85;2.38;;;46.00;33.80;;;;;;4882198;28;87017;-80
2022/07/14 07:46:07;;;;;;;7.55;2.60;;;46.60;32.90;;;;;;4883071;28;88605;-80
2022/07/14 07:48:33;;;;;;;7.38;2.72;;;47.20;31.70;;;;;;4886026;28;88015;-82
2022/07/14 07:50:59;;;;;;;3.67;3.00;;;46.60;32.90;;;;;;4902930;28;86506;-82
2022/07/14 07:53:26;;;;;;;5.57;3.33;;;47.10;32.70;;;;;;4887242;28;87684;-81
2022/07/14 07:55:52;;;;;;;3.30;3.00;;;48.20;31.90;;;;;;4882329;28;88011;-82
2022/07/14 07:58:19;;;;;;;2.97;2.50;;;49.20;31.20;;;;;;4887192;28;89110;-81
2022/07/14 08:00:45;;;;;;;4.18;3.15;;;49.60;29.80;;;;;;4886364;28;86621;-82
2022/07/14 08:03:10;;;;;;;7.70;4.32;;;50.20;29.80;;;;;;4886024;28;86873;-82
2022/07/14 08:05:36;;;;;;;6.63;3.83;;;50.30;29.60;;;;;;4892203;28;87432;-82
2022/07/14 08:08:02;;;;;;;4.97;3.35;;;50.50;29.70;;;;;;4895403;28;87318;-82
2022/07/14 08:10:28;;;;;;;7.10;4.03;;;49.30;31.20;;;;;;4885383;28;87728;-81
2022/07/14 08:12:54;;;;;;;6.60;5.03;;;50.10;29.20;;;;;;4881387;28;86413;-83
2022/07/14 08:15:20;;;;;;;4.70;2.55;;;49.60;30.00;;;;;;4885059;28;87381;-81
2022/07/14 08:17:46;;;;;;;6.80;4.43;;;48.10;31.70;;;;;;4894129;28;87007;-84
2022/07/14 08:20:12;;;;;;;4.93;4.43;;;49.50;31.20;;;;;;4901008;28;88039;-83
2022/07/14 08:22:39;;;;;;;5.53;4.05;;;50.80;30.40;;;;;;4894694;28;87175;-83
2022/07/14 08:25:07;;;;;;;5.22;4.72;;;51.30;29.90;;;;;;4895373;28;86775;-84
2022/07/14 08:27:33;;;;;;;5.85;5.30;;;51.90;29.80;;;;;;4900433;28;87025;-82
2022/07/14 08:29:59;;;;;;;4.70;4.30;;;51.90;29.40;;;;;;4899477;28;86878;-84
2022/07/14 08:32:46;;;;;;;5.95;5.30;;;51.10;29.40;;;;;;4896304;28;87010;-85
2022/07/14 08:35:16;;;;;;;4.40;4.00;;;51.80;29.50;;;;;;4898762;28;86878;-85
2022/07/14 08:37:42;;;;;;;5.43;3.88;;;48.70;30.50;;;;;;4899355;28;87748;-83
2022/07/14 08:40:15;;;;;;;5.93;5.15;;;48.40;31.30;;;;;;4896095;28;87007;-83
2022/07/14 08:42:48;;;;;;;6.18;5.60;;;48.10;31.60;;;;;;4887992;28;87274;-83
2022/07/14 08:45:15;;;;;;;7.55;6.07;;;48.70;31.00;;;;;;4885064;28;89178;-82
2022/07/14 08:47:41;;;;;;;;;;;49.20;29.70;;;;;;4896344;28;88136;-84
2022/07/14 08:50:10;;;;;;;6.35;4.93;;;48.00;30.80;;;;;;4888276;28;86303;-83
2022/07/14 08:52:36;;;;;;;5.90;4.57;;;49.00;30.10;;;;;;4887089;28;87958;-82
2022/07/14 08:55:04;;;;;;;4.95;4.43;;;49.90;29.50;;;;;;4890626;28;86912;-84
2022/07/14 08:57:30;;;;;;;7.28;5.70;;;50.00;29.00;;;;;;4906914;28;86844;-84
2022/07/14 08:59:57;;;;;;;6.43;5.88;;;50.70;29.20;;;;;;4891208;28;87407;-82
2022/07/14 09:02:23;;;;;;;10.57;5.40;;;52.10;28.40;;;;;;4888375;28;86244;-83
2022/07/14 09:04:49;;;;;;;7.53;5.50;;;52.90;27.40;;;;;;4887499;28;87065;-83
2022/07/14 09:07:31;;;;;;;6.68;6.05;;;52.30;27.80;;;;;;4887202;28;86960;-83
2022/07/14 09:10:12;;;;;;;5.30;4.70;;;52.00;28.40;;;;;;4886805;28;87727;-84
2022/07/14 09:12:38;;;;;;;7.03;6.40;;;51.70;27.60;;;;;;4895109;28;87196;-82
2022/07/14 09:18:01;;;;;;;8.75;5.07;;;50.90;28.60;;;;;;4868299;29;86830;-83
2022/07/14 09:20:29;;;;;;;6.47;5.18;;;50.00;28.60;;;;;;4886958;28;86903;-82
2022/07/14 09:22:57;;;;;;;6.72;5.75;;;49.80;28.90;;;;;;4887179;28;86933;-82
2022/07/14 09:25:24;;;;;;;6.90;6.00;;;50.70;28.90;;;;;;4884403;28;87364;-83
2022/07/14 09:27:50;;;;;;;6.40;5.63;;;49.90;28.70;;;;;;4887753;28;87089;-84
2022/07/14 09:30:16;;;;;;;6.40;5.88;;;48.80;29.10;;;;;;4884585;28;87001;-83
2022/07/14 09:32:52;;;;;;;8.20;5.55;;;47.10;29.90;;;;;;4870260;28;87573;-82
2022/07/14 09:35:27;;;;;;;6.38;4.38;;;45.60;30.80;;;;;;4872499;28;88243;-83
2022/07/14 09:37:54;;;;;;;7.88;4.75;;;46.90;28.60;;;;;;4887163;28;88130;-83
2022/07/14 09:40:31;;;;;;;4.63;4.22;;;48.00;28.50;;;;;;4878958;28;87102;-84
2022/07/14 09:42:57;;;;;;;4.75;4.35;;;48.40;28.60;;;;;;4875839;28;86647;-82
2022/07/14 09:45:45;;;;;;;5.95;4.72;;;49.20;28.00;;;;;;4887579;28;87291;-84
2022/07/14 09:48:16;;;;;;;7.53;4.28;;;50.30;27.40;;;;;;4889268;28;87555;-83
2022/07/14 09:50:56;;;;;;;6.20;5.63;;;50.40;27.00;;;;;;4891244;28;86967;-84
2022/07/14 09:53:22;;;;;;;6.43;5.93;;;50.90;26.90;;;;;;4888365;28;86475;-83
2022/07/14 09:56:14;;;;;;;5.85;4.63;;;51.50;26.00;;;;;;4890832;28;88060;-83
2022/07/14 09:58:41;;;;;;;5.45;4.95;;;50.80;26.60;;;;;;4893132;28;87781;-82
2022/07/14 10:01:09;;;;;;;5.60;5.10;;;50.40;27.20;;;;;;4900188;28;88125;-84
2022/07/14 10:03:37;;;;;;;6.07;5.47;;;51.20;27.20;;;;;;4895925;28;86907;-83
2022/07/14 10:06:05;;;;;;;5.68;5.28;;;50.60;27.70;;;;;;4899053;28;87294;-84
2022/07/14 10:08:33;;;;;;;;;;;50.40;26.90;;;;;;4895934;28;87334;-83
2022/07/14 10:11:01;;;;;;;5.80;5.20;;;48.40;27.90;;;;;;4896302;28;86971;-82
2022/07/14 10:13:27;;;;;;;6.13;5.53;;;46.80;27.90;;;;;;4892063;28;86820;-83
2022/07/14 10:15:55;;;;;;;5.20;4.70;;;46.30;28.40;;;;;;4881091;28;87137;-82
2022/07/14 10:18:22;;;;;;;;;;;45.40;28.60;;;;;;4883485;28;87967;-83
2022/07/14 10:20:56;;;;;;;5.82;3.75;;;44.70;29.10;;;;;;4884916;28;87627;-82
2022/07/14 10:25:59;;;;;;;3.30;2.95;;;41.60;29.90;;;;;;5201493;23;89696;-84
2022/07/14 10:28:26;;;;;;;4.85;2.88;;;39.20;31.40;;;;;;4862705;29;87803;-81
2022/07/14 10:30:54;;;;;;;7.57;2.30;;;38.00;33.70;;;;;;4873015;29;87082;-83
2022/07/14 10:33:23;;;;;;;2.42;1.95;;;37.50;33.50;;;;;;4867238;29;87055;-83
2022/07/14 10:36:10;;;;;;;3.47;1.95;;;37.20;34.60;;;;;;4872915;29;87104;-83
2022/07/14 10:38:39;;;;;;;;;;;36.70;36.40;;;;;;4872264;29;87726;-84
2022/07/14 10:41:17;;;;;;;2.53;1.85;;;36.20;37.10;;;;;;4873358;29;88140;-82
2022/07/14 10:43:57;;;;;;;3.88;1.58;;;36.30;37.20;;;;;;4873703;29;86175;-82
2022/07/14 10:46:37;;;;;;;4.22;1.95;;;35.70;38.10;;;;;;4873523;29;88858;-83
2022/07/14 10:49:06;;;;;;;2.03;1.10;;;35.30;36.80;;;;;;4873302;29;87057;-82
2022/07/14 10:51:33;;;;;;;3.60;1.15;;;35.30;36.00;;;;;;4866126;29;88052;-83
2022/07/14 10:54:00;;;;;;;5.82;1.60;;;35.00;35.90;;;;;;4871909;29;86822;-82
2022/07/14 10:56:27;;;;;;;4.13;1.02;;;34.90;36.30;;;;;;4854554;29;88461;-82
2022/07/14 10:59:26;;;;;;;2.65;1.45;;;35.20;36.00;;;;;;4872238;29;87035;-84
2022/07/14 11:02:13;;;;;;;6.90;1.67;;;35.40;35.90;;;;;;4878329;28;86509;-81
2022/07/14 11:05:00;;;;;;;3.20;1.70;;;35.10;38.50;;;;;;4878573;28;88417;-82
2022/07/14 11:07:46;;;;;;;7.80;1.55;;;34.80;37.70;;;;;;4880700;28;87288;-82
2022/07/14 11:10:18;;;;;;;2.65;1.20;;;35.20;36.80;;;;;;4879116;28;86792;-83
2022/07/14 11:13:02;;;;;;;15.65;1.55;;;35.20;37.30;;;;;;4868463;29;86665;-82
2022/07/14 11:15:40;;;;;;;6.13;1.27;;;35.30;38.40;;;;;;4872436;28;87001;-82
2022/07/14 11:18:17;;;;;;;1.90;0.88;;;34.90;40.70;;;;;;4864567;28;88743;-81
2022/07/14 11:21:06;;;;;;;3.92;1.10;;;34.90;38.20;;;;;;4880601;28;87916;-82
2022/07/14 11:23:53;;;;;;;2.63;1.25;;;34.90;40.30;;;;;;4876500;28;86880;-82
2022/07/14 11:26:37;;;;;;;3.80;1.08;;;34.80;39.20;;;;;;4858687;28;87173;-83
2022/07/14 11:29:07;;;;;;;4.00;1.17;;;34.60;38.30;;;;;;4854273;28;86956;-82
2022/07/14 11:31:50;;;;;;;3.45;1.65;;;34.50;40.40;;;;;;4866351;28;87848;-84
2022/07/14 11:37:19;;;;;;;6.65;1.30;;;34.00;39.40;;;;;;4873025;29;86142;-82
2022/07/14 11:39:45;;;;;;;3.40;1.30;;;33.90;40.60;;;;;;4871017;29;86695;-83
2022/07/14 11:42:16;;;;;;;4.85;1.23;;;33.50;39.90;;;;;;4872484;29;88078;-82
2022/07/14 11:44:43;;;;;;;5.65;1.35;;;33.30;42.70;;;;;;4871591;29;89229;-81
2022/07/14 11:47:22;;;;;;;4.65;1.50;;;33.40;40.80;;;;;;4871351;29;86962;-82
2022/07/14 11:50:04;;;;;;;3.33;1.38;;;33.40;41.10;;;;;;4872361;29;87344;-82
2022/07/14 11:52:33;;;;;;;5.32;1.98;;;33.50;41.30;;;;;;4885892;28;86993;-82
2022/07/14 11:55:03;;;;;;;3.25;1.02;;;33.70;39.40;;;;;;4889679;28;86566;-83
2022/07/14 11:57:28;;;;;;;3.42;1.30;;;33.50;41.30;;;;;;4885520;28;87195;-82
2022/07/14 12:00:10;;;;;;;2.58;0.98;;;33.30;41.40;;;;;;4861278;29;87525;-82
2022/07/14 12:02:49;;;;;;;;;;;33.00;43.50;;;;;;4872063;28;88591;-80
2022/07/14 12:05:15;;;;;;;3.03;1.15;;;33.10;42.00;;;;;;4872590;29;86903;-81
2022/07/14 12:07:46;;;;;;;22.10;1.90;;;33.20;44.90;;;;;;4871095;29;86888;-82
2022/07/14 12:10:15;;;;;;;5.47;1.35;;;33.10;45.40;;;;;;4869296;29;88900;-83
2022/07/14 12:12:43;;;;;;;5.35;1.38;;;33.30;43.90;;;;;;4869480;28;88276;-82
2022/07/14 12:15:09;;;;;;;3.55;1.23;;;33.40;44.90;;;;;;4871529;29;86888;-82
2022/07/14 12:17:49;;;;;;;4.93;1.20;;;33.30;44.00;;;;;;4871473;28;87012;-82
2022/07/14 12:20:14;;;;;;;2.60;1.30;;;33.20;41.70;;;;;;4872381;29;87575;-80
2022/07/14 12:22:56;;;;;;;2.60;1.30;;;33.20;44.70;;;;;;4867077;29;86297;-82
2022/07/14 12:25:25;;;;;;;5.05;1.38;;;33.30;43.40;;;;;;4853016;29;86857;-81
2022/07/14 12:27:51;;;;;;;8.07;1.08;;;33.30;45.60;;;;;;4853228;29;86560;-82
2022/07/14 12:30:17;;;;;;;3.08;1.40;;;33.20;43.80;;;;;;4852362;29;87558;-82
2022/07/14 12:32:44;;;;;;;2.22;1.05;;;33.10;42.70;;;;;;4866698;28;86827;-81
2022/07/14 12:35:10;;;;;;;4.35;0.85;;;32.90;45.10;;;;;;4877614;28;87565;-81
2022/07/14 12:37:36;;;;;;;4.32;1.27;;;32.90;41.90;;;;;;4865241;29;86750;-83
2022/07/14 12:40:05;;;;;;;4.18;0.98;;;32.80;43.70;;;;;;4871625;29;87259;-81
2022/07/14 12:42:31;;;;;;;4.03;1.33;;;32.90;41.50;;;;;;4871500;29;88025;-81
2022/07/14 12:44:58;;;;;;;3.45;1.30;;;33.00;45.00;;;;;;4871878;29;86913;-82
2022/07/14 12:47:24;;;;;;;6.57;1.50;;;32.80;41.60;;;;;;4871233;29;86943;-82
2022/07/14 12:49:50;;;;;;;3.58;1.30;;;32.90;43.60;;;;;;4888125;28;86786;-80
2022/07/14 12:52:16;;;;;;;6.38;1.02;;;33.00;42.00;;;;;;4873394;28;87828;-81
2022/07/14 12:54:43;;;;;;;3.40;1.23;;;33.00;40.80;;;;;;4852866;29;86977;-81
2022/07/14 12:57:23;;;;;;;3.28;1.13;;;32.70;41.60;;;;;;4853704;29;87022;-81
2022/07/14 12:59:50;;;;;;;4.78;1.15;;;32.80;40.70;;;;;;4858851;29;88299;-87
2022/07/14 13:02:22;;;;;;;2.22;1.52;;;32.80;42.60;;;;;;4879810;28;88222;-84
2022/07/14 13:04:51;;;;;;;3.92;0.93;;;32.80;41.90;;;;;;4862223;29;87041;-81
2022/07/14 13:07:27;;;;;;;3.38;1.00;;;32.80;41.20;;;;;;4871711;29;87074;-81
2022/07/14 13:10:18;;;;;;;3.38;1.33;;;32.70;40.90;;;;;;4871571;29;87663;-83
2022/07/14 13:12:51;;;;;;;2.15;1.13;;;32.50;45.20;;;;;;4870665;29;86954;-81
2022/07/14 13:15:18;;;;;;;3.03;1.27;;;32.50;42.70;;;;;;4852762;29;86822;-81
2022/07/14 13:17:56;;;;;;;5.57;1.02;;;32.40;43.50;;;;;;4853165;29;86030;-82
2022/07/14 13:20:47;;;;;;;2.22;0.98;;;32.60;41.00;;;;;;4854876;29;87425;-81
2022/07/14 13:23:32;;;;;;;3.72;1.05;;;32.60;41.60;;;;;;4859086;29;87978;-81
2022/07/14 13:26:10;;;;;;;3.25;1.17;;;32.60;42.60;;;;;;4859118;29;87939;-82
2022/07/14 13:28:39;;;;;;;4.18;0.75;;;32.60;42.10;;;;;;4874805;29;87063;-80
2022/07/14 13:31:09;;;;;;;2.72;1.33;;;32.50;42.60;;;;;;4874642;29;87830;-83
2022/07/14 13:33:38;;;;;;;5.80;1.08;;;32.50;41.40;;;;;;4884230;28;88488;-81
2022/07/14 13:36:06;;;;;;;3.67;0.80;;;32.60;41.30;;;;;;4879125;28;86415;-82
2022/07/14 13:38:33;;;;;;;2.22;1.17;;;32.50;43.30;;;;;;4862453;29;86872;-84
2022/07/14 13:40:59;;;;;;;2.60;1.10;;;32.40;41.30;;;;;;4874996;29;87219;-82
2022/07/14 13:43:25;;;;;;;3.88;1.05;;;32.30;42.30;;;;;;4874073;29;88402;-81
2022/07/14 13:45:52;;;;;;;4.38;1.17;;;32.40;42.00;;;;;;4874734;29;86653;-81
2022/07/14 13:48:19;;;;;;;4.57;1.05;;;32.60;42.40;;;;;;4873963;29;87008;-81
2022/07/14 13:53:29;;;;;;;4.60;1.60;;;32.70;43.60;;;;;;4874569;29;87904;-82
2022/07/14 13:55:55;;;;;;;3.85;1.00;;;32.70;43.30;;;;;;4873693;29;87005;-81
2022/07/14 13:58:21;;;;;;;2.45;1.17;;;32.80;41.30;;;;;;4874475;28;86835;-81
2022/07/14 14:00:46;;;;;;;2.60;1.00;;;32.80;42.10;;;;;;4876831;28;87105;-83
2022/07/14 14:03:24;;;;;;;2.63;1.13;;;32.80;41.10;;;;;;4869229;28;87544;-80
2022/07/14 14:06:11;;;;;;;5.57;1.33;;;32.90;42.50;;;;;;4855599;29;86844;-81
2022/07/14 14:08:37;;;;;;;5.50;1.08;;;32.80;44.30;;;;;;4856108;29;86232;-82
2022/07/14 14:11:03;;;;;;;5.28;0.95;;;32.80;44.10;;;;;;4855436;29;87287;-82
2022/07/14 14:13:31;;;;;;;5.25;1.05;;;33.00;44.90;;;;;;4855142;29;86920;-83
2022/07/14 14:15:58;;;;;;;3.80;1.10;;;33.10;45.00;;;;;;4854390;29;87731;-81
2022/07/14 14:18:24;;;;;;;3.65;1.00;;;33.00;44.70;;;;;;4855505;29;87006;-81
2022/07/14 14:20:50;;;;;;;5.78;0.98;;;33.00;42.90;;;;;;4855390;29;87528;-81
2022/07/14 14:23:16;;;;;;;4.10;1.30;;;33.10;43.80;;;;;;4865432;28;87063;-83
2022/07/14 14:25:42;;;;;;;2.53;1.23;;;33.20;43.00;;;;;;4870115;28;86996;-81
2022/07/14 14:28:08;;;;;;;2.08;1.27;;;33.30;44.30;;;;;;4836734;29;86924;-81
2022/07/14 14:30:35;;;;;;;6.03;1.00;;;33.50;43.70;;;;;;4852836;29;88866;-83
2022/07/14 14:33:02;;;;;;;5.63;1.00;;;33.70;41.10;;;;;;4853974;29;88355;-83
2022/07/14 14:35:28;;;;;;;1.73;1.17;;;33.60;42.90;;;;;;4851761;29;86962;-82
2022/07/14 14:37:53;;;;;;;1.75;1.20;;;33.70;41.70;;;;;;4855006;29;86534;-81
2022/07/14 14:40:19;;;;;;;4.95;1.02;;;33.90;40.60;;;;;;4854100;29;88203;-82
2022/07/14 14:42:46;;;;;;;4.22;1.27;;;33.80;40.50;;;;;;4838583;29;88090;-82
2022/07/14 14:45:12;;;;;;;4.13;1.25;;;33.70;41.80;;;;;;4833617;29;87049;-81
2022/07/14 14:47:39;;;;;;;3.47;1.23;;;33.90;40.70;;;;;;4834066;29;86999;-81
2022/07/14 14:50:06;;;;;;;3.55;1.40;;;33.80;41.10;;;;;;4834368;29;88187;-84
2022/07/14 14:52:32;;;;;;;5.13;1.40;;;34.00;40.90;;;;;;4833025;29;88759;-82
2022/07/14 14:54:58;;;;;;;3.25;1.27;;;34.10;41.60;;;;;;4834511;29;86921;-83
2022/07/14 14:57:24;;;;;;;4.22;1.10;;;34.00;42.70;;;;;;4834506;29;85797;-82
2022/07/14 14:59:50;;;;;;;4.22;1.10;;;33.70;42.40;;;;;;4833800;29;88176;-82
2022/07/14 15:02:17;;;;;;;6.50;1.15;;;33.90;41.70;;;;;;4838164;29;86949;-81
2022/07/14 15:04:42;;;;;;;5.25;1.30;;;33.80;40.40;;;;;;4841223;29;87981;-82
2022/07/14 15:07:08;;;;;;;3.67;1.33;;;33.50;41.50;;;;;;4860733;29;87349;-82
2022/07/14 15:09:34;;;;;;;4.80;1.27;;;33.30;42.00;;;;;;4856638;29;87164;-82
2022/07/14 15:11:59;;;;;;;3.60;0.98;;;33.20;41.80;;;;;;4857545;29;87070;-80
2022/07/14 15:14:25;;;;;;;2.78;1.42;;;33.10;41.50;;;;;;4851154;29;86974;-81
2022/07/14 15:16:52;;;;;;;7.38;1.40;;;33.30;43.90;;;;;;4850218;29;86898;-83
2022/07/14 15:19:18;;;;;;;4.55;1.30;;;33.30;42.20;;;;;;4848924;29;87314;-82
2022/07/14 15:21:44;;;;;;;3.95;1.23;;;33.10;41.60;;;;;;4844443;29;87954;-81
2022/07/14 15:24:10;;;;;;;2.67;1.25;;;33.20;41.50;;;;;;4851222;29;86893;-83
2022/07/14 15:26:36;;;;;;;2.63;1.10;;;33.10;41.80;;;;;;4863369;28;86996;-82
2022/07/14 15:29:02;;;;;;;2.80;1.00;;;33.20;42.30;;;;;;4851638;29;88330;-86
2022/07/14 15:31:28;;;;;;;4.82;1.35;;;33.40;43.40;;;;;;4852971;29;87120;-81
2022/07/14 15:33:54;;;;;;;4.03;1.50;;;33.50;41.80;;;;;;4853085;29;86759;-81
2022/07/14 15:36:20;;;;;;;2.53;1.10;;;33.40;43.10;;;;;;4865955;28;87697;-82
2022/07/14 15:41:41;;;;;;;5.65;1.15;;;33.10;43.50;;;;;;4827279;29;86934;-84
2022/07/14 15:44:07;;;;;;;3.78;1.20;;;32.90;42.70;;;;;;4870495;29;87008;-82
2022/07/14 15:46:33;;;;;;;2.70;1.45;;;33.10;42.60;;;;;;4871517;29;86122;-82
2022/07/14 15:48:58;;;;;;;4.25;1.00;;;33.10;42.10;;;;;;4870718;28;87122;-82
2022/07/14 15:51:24;;;;;;;2.63;1.02;;;33.10;42.00;;;;;;4867864;28;87027;-81
2022/07/14 15:53:50;;;;;;;2.90;1.27;;;33.00;41.90;;;;;;4867065;29;88158;-82
2022/07/14 15:56:15;;;;;;;2.53;1.10;;;32.80;41.70;;;;;;4871279;29;86886;-83
2022/07/14 15:58:41;;;;;;;4.00;1.02;;;32.90;42.10;;;;;;4871041;29;87396;-81